createdAt,value
2022-07-25T00:02:10.086Z,98419.03
2022-07-25T00:04:39.370Z,98416.72
2022-07-25T00:07:08.737Z,98412.78
2022-07-25T00:09:39.340Z,98411.91
2022-07-25T00:12:11.089Z,98406.44
2022-07-25T00:14:40.786Z,98411.56
2022-07-25T00:17:09.979Z,98402.34
2022-07-25T00:19:39.421Z,98400.94
2022-07-25T00:22:08.644Z,98400.66
2022-07-25T00:24:39.180Z,98390.69
2022-07-25T00:27:08.661Z,98399.75
2022-07-25T00:29:37.869Z,98395.03
2022-07-25T00:32:07.810Z,98398.47
2022-07-25T00:34:36.972Z,98400.72
2022-07-25T00:37:07.071Z,98390.97
2022-07-25T00:39:36.500Z,98395.19
2022-07-25T00:42:07.678Z,98381.91
2022-07-25T00:44:36.927Z,98391.06
2022-07-25T00:47:06.560Z,98389.84
2022-07-25T00:49:35.765Z,98390.19
2022-07-25T00:52:05.603Z,98394.97
2022-07-25T00:54:34.878Z,98392.59
2022-07-25T00:57:04.401Z,98388.84
2022-07-25T00:59:34.946Z,98391.00
2022-07-25T01:02:04.455Z,98392.56
2022-07-25T01:04:33.829Z,98396.31
2022-07-25T01:07:03.933Z,98390.72
2022-07-25T01:09:33.418Z,98382.53
2022-07-25T01:12:02.546Z,98380.00
2022-07-25T01:14:31.749Z,98381.97
2022-07-25T01:17:02.357Z,98379.81
2022-07-25T01:19:31.509Z,98384.75
2022-07-25T01:22:02.113Z,98380.97
2022-07-25T01:24:31.301Z,98379.69
2022-07-25T01:27:00.462Z,98380.31
2022-07-25T01:29:29.686Z,98373.47
2022-07-25T01:31:58.829Z,98371.41
2022-07-25T01:34:27.967Z,98367.59
2022-07-25T01:36:57.109Z,98363.94
2022-07-25T01:39:27.664Z,98361.88
2022-07-25T01:41:56.805Z,98366.66
2022-07-25T01:44:26.011Z,98357.19
2022-07-25T01:46:55.229Z,98359.44
2022-07-25T01:49:26.791Z,98352.31
2022-07-25T01:51:55.992Z,98354.50
2022-07-25T01:54:25.137Z,98354.88
2022-07-25T01:56:55.738Z,98338.47
2022-07-25T01:59:25.631Z,98338.06
2022-07-25T02:01:54.867Z,98338.16
2022-07-25T02:04:24.659Z,98335.94
2022-07-25T02:06:53.837Z,98339.00
2022-07-25T02:09:24.105Z,98337.41
2022-07-25T02:11:53.417Z,98337.66
2022-07-25T02:14:24.802Z,98332.34
2022-07-25T02:16:54.121Z,98332.94
2022-07-25T02:19:23.349Z,98325.59
2022-07-25T02:21:52.677Z,98337.34
2022-07-25T02:24:21.816Z,98332.31
2022-07-25T02:26:51.182Z,98326.72
2022-07-25T02:29:22.211Z,98325.69
2022-07-25T02:31:53.221Z,98322.06
2022-07-25T02:34:22.589Z,98328.00
2022-07-25T02:36:51.909Z,98329.31
2022-07-25T02:39:21.339Z,98327.69
2022-07-25T02:41:50.529Z,98321.38
2022-07-25T02:44:19.741Z,98324.91
2022-07-25T02:46:48.925Z,98323.59
2022-07-25T02:49:19.570Z,98328.25
2022-07-25T02:51:48.858Z,98321.00
2022-07-25T02:54:17.972Z,98316.88
2022-07-25T02:56:48.340Z,98328.13
2022-07-25T02:59:17.480Z,98329.41
2022-07-25T03:01:46.835Z,98331.94
2022-07-25T03:04:16.291Z,98331.66
2022-07-25T03:06:47.799Z,98330.38
2022-07-25T03:09:16.993Z,98337.97
2022-07-25T03:11:46.223Z,98327.53
2022-07-25T03:14:16.385Z,98330.09
2022-07-25T03:16:45.568Z,98322.97
2022-07-25T03:19:14.761Z,98321.84
2022-07-25T03:21:43.903Z,98320.91
2022-07-25T03:24:14.489Z,98322.47
2022-07-25T03:26:43.701Z,98319.81
2022-07-25T03:29:12.940Z,98317.72
2022-07-25T03:31:42.145Z,98320.91
2022-07-25T03:34:11.414Z,98326.13
2022-07-25T03:36:40.595Z,98328.16
2022-07-25T03:39:09.759Z,98331.03
2022-07-25T03:41:40.325Z,98331.34
2022-07-25T03:44:10.042Z,98334.22
2022-07-25T03:46:39.504Z,98333.22
2022-07-25T03:49:08.750Z,98337.03
2022-07-25T03:51:38.048Z,98332.28
2022-07-25T03:54:08.856Z,98337.31
2022-07-25T03:56:43.828Z,98340.53
2022-07-25T03:59:16.367Z,98339.91
2022-07-25T04:01:46.991Z,98342.09
2022-07-25T04:04:17.091Z,98333.56
2022-07-25T04:06:47.132Z,98329.75
2022-07-25T04:09:17.206Z,98340.22
2022-07-25T04:11:48.040Z,98329.78
2022-07-25T04:14:17.295Z,98337.66
2022-07-25T04:16:49.253Z,98324.06
2022-07-25T04:19:19.047Z,98326.59
2022-07-25T04:21:48.322Z,98325.94
2022-07-25T04:24:19.641Z,98331.34
2022-07-25T04:26:50.346Z,98324.06
2022-07-25T04:29:19.702Z,98322.47
2022-07-25T04:31:48.982Z,98319.31
2022-07-25T04:34:18.258Z,98326.28
2022-07-25T04:36:47.555Z,98326.13
2022-07-25T04:39:19.565Z,98331.66
2022-07-25T04:41:50.343Z,98323.69
2022-07-25T04:44:19.674Z,98319.41
2022-07-25T04:46:51.817Z,98324.59
2022-07-25T04:49:21.110Z,98328.44
2022-07-25T04:51:50.289Z,98323.97
2022-07-25T04:54:19.461Z,98324.91
2022-07-25T04:56:50.089Z,98322.22
2022-07-25T04:59:19.341Z,98328.03
2022-07-25T05:01:48.583Z,98327.38
2022-07-25T05:04:19.732Z,98323.91
2022-07-25T05:06:48.993Z,98322.31
2022-07-25T05:09:18.224Z,98326.22
2022-07-25T05:11:51.626Z,98320.28
2022-07-25T05:14:26.598Z,98314.38
2022-07-25T05:16:55.919Z,98322.88
2022-07-25T05:19:25.393Z,98314.03
2022-07-25T05:21:54.866Z,98316.59
2022-07-25T05:24:24.367Z,98317.22
2022-07-25T05:26:53.794Z,98312.09
2022-07-25T05:29:25.256Z,98320.25
2022-07-25T05:31:56.263Z,98326.44
2022-07-25T05:34:25.777Z,98325.91
2022-07-25T05:36:55.174Z,98322.66
2022-07-25T05:39:24.450Z,98315.38
2022-07-25T05:41:53.606Z,98315.47
2022-07-25T05:44:23.094Z,98311.91
2022-07-25T05:46:52.438Z,98310.34
2022-07-25T05:49:23.366Z,98311.75
2022-07-25T05:51:52.760Z,98319.06
2022-07-25T05:54:23.983Z,98313.31
2022-07-25T05:56:53.190Z,98310.97
2022-07-25T05:59:24.054Z,98305.84
2022-07-25T06:01:53.549Z,98301.84
2022-07-25T06:04:27.239Z,98317.00
2022-07-25T06:06:56.696Z,98311.66
2022-07-25T06:09:25.982Z,98304.06
2022-07-25T06:12:01.149Z,98299.66
2022-07-25T06:14:30.891Z,98307.47
2022-07-25T06:17:00.182Z,98304.00
2022-07-25T06:19:30.921Z,98304.00
2022-07-25T06:22:00.227Z,98309.47
2022-07-25T06:24:29.480Z,98308.66
2022-07-25T06:26:58.790Z,98306.75
2022-07-25T06:29:28.083Z,98307.31
2022-07-25T06:31:57.409Z,98306.91
2022-07-25T06:34:28.784Z,98309.09
2022-07-25T06:36:59.832Z,98308.13
2022-07-25T06:39:29.311Z,98302.44
2022-07-25T06:41:59.774Z,98299.66
2022-07-25T06:44:36.860Z,98301.22
2022-07-25T06:47:10.685Z,98302.78
2022-07-25T06:49:40.318Z,98306.88
2022-07-25T06:52:11.927Z,98296.13
2022-07-25T06:54:41.289Z,98300.28
2022-07-25T06:57:10.687Z,98297.97
2022-07-25T06:59:40.041Z,98288.06
2022-07-25T07:02:09.639Z,98291.84
2022-07-25T07:04:38.881Z,98290.91
2022-07-25T07:07:08.170Z,98284.69
2022-07-25T07:09:38.899Z,98282.34
2022-07-25T07:12:09.462Z,98287.13
2022-07-25T07:14:38.830Z,98285.59
2022-07-25T07:17:09.171Z,98279.59
2022-07-25T07:19:43.917Z,98290.84
2022-07-25T07:22:16.266Z,98298.69
2022-07-25T07:24:48.209Z,98294.00
2022-07-25T07:27:20.670Z,98291.09
2022-07-25T07:29:50.230Z,98285.59
2022-07-25T07:32:20.274Z,98286.06
2022-07-25T07:34:52.304Z,98276.84
2022-07-25T07:37:21.591Z,98285.72
2022-07-25T07:39:55.483Z,98278.59
2022-07-25T07:42:25.152Z,98278.53
2022-07-25T07:44:54.408Z,98284.97
2022-07-25T07:47:23.768Z,98277.75
2022-07-25T07:49:53.600Z,98279.22
2022-07-25T07:52:22.919Z,98282.06
2022-07-25T07:55:09.757Z,98278.00
2022-07-25T07:57:40.481Z,98270.56
2022-07-25T08:00:16.236Z,98271.44
2022-07-25T08:02:47.715Z,98272.28
2022-07-25T08:05:23.581Z,98268.81
2022-07-25T08:07:53.989Z,98272.44
2022-07-25T08:10:26.171Z,98275.34
2022-07-25T08:12:57.800Z,98266.28
2022-07-25T08:15:27.863Z,98271.94
2022-07-25T08:17:57.102Z,98268.97
2022-07-25T08:20:38.107Z,98271.19
2022-07-25T08:23:11.086Z,98267.13
2022-07-25T08:25:40.866Z,98269.47
2022-07-25T08:28:11.941Z,98255.34
2022-07-25T08:30:42.750Z,98248.91
2022-07-25T08:33:16.041Z,98256.13
2022-07-25T08:35:49.155Z,98255.25
2022-07-25T08:38:19.557Z,98252.13
2022-07-25T08:40:52.170Z,98252.41
2022-07-25T08:43:23.397Z,98250.53
2022-07-25T08:45:58.062Z,98252.09
2022-07-25T08:48:29.759Z,98255.69
2022-07-25T08:51:00.687Z,98250.22
2022-07-25T08:53:33.307Z,98256.41
2022-07-25T08:56:08.315Z,98248.19
2022-07-25T08:58:41.620Z,98242.63
2022-07-25T09:01:11.177Z,98230.72
2022-07-25T09:03:40.663Z,98229.72
2022-07-25T09:06:26.111Z,98231.28
2022-07-25T09:08:59.070Z,98227.25
2022-07-25T09:11:34.583Z,98232.84
2022-07-25T09:14:10.472Z,98221.56
2022-07-25T09:16:43.253Z,98222.34
2022-07-25T09:19:16.218Z,98222.78
2022-07-25T09:21:47.846Z,98215.19
2022-07-25T09:24:22.619Z,98215.31
2022-07-25T09:27:03.322Z,98204.44
2022-07-25T09:29:35.926Z,98209.50
2022-07-25T09:32:17.406Z,98208.66
2022-07-25T09:34:49.847Z,98208.00
2022-07-25T09:37:28.524Z,98205.13
2022-07-25T09:39:57.931Z,98190.31
2022-07-25T09:42:32.272Z,98197.97
2022-07-25T09:45:10.103Z,98195.75
2022-07-25T09:47:56.512Z,98195.81
2022-07-25T09:50:30.166Z,98199.78
2022-07-25T09:53:04.493Z,98196.16
2022-07-25T09:55:53.447Z,98184.28
2022-07-25T09:58:22.772Z,98176.47
2022-07-25T10:00:56.887Z,98182.50
2022-07-25T10:03:39.636Z,98177.47
2022-07-25T10:06:21.450Z,98176.13
2022-07-25T10:08:52.076Z,98171.16
2022-07-25T10:11:24.117Z,98177.47
2022-07-25T10:13:57.535Z,98163.06
2022-07-25T10:16:29.151Z,98178.94
2022-07-25T10:19:00.467Z,98166.78
2022-07-25T10:21:30.303Z,98157.34
2022-07-25T10:24:06.054Z,98153.16
2022-07-25T10:26:40.299Z,98153.28
2022-07-25T10:29:11.112Z,98149.66
2022-07-25T10:31:50.614Z,98150.84
2022-07-25T10:34:30.899Z,98150.03
2022-07-25T10:37:12.020Z,98141.66
2022-07-25T10:39:45.772Z,98144.09
2022-07-25T10:42:16.724Z,98142.91
2022-07-25T10:44:49.732Z,98139.56
2022-07-25T10:47:25.029Z,98130.63
2022-07-25T10:50:16.782Z,98132.28
2022-07-25T10:53:00.646Z,98129.88
2022-07-25T10:55:30.558Z,98130.50
2022-07-25T10:58:21.591Z,98130.38
2022-07-25T11:00:51.547Z,98132.59
2022-07-25T11:03:23.018Z,98116.06
2022-07-25T11:05:54.712Z,98113.59
2022-07-25T11:08:33.395Z,98112.56
2022-07-25T11:11:03.273Z,98111.03
2022-07-25T11:13:37.332Z,98120.19
2022-07-25T11:16:08.325Z,98110.31
2022-07-25T11:18:41.740Z,98101.47
2022-07-25T11:21:11.175Z,98112.28
2022-07-25T11:23:42.159Z,98104.72
2022-07-25T11:26:13.244Z,98109.72
2022-07-25T11:28:46.323Z,98108.09
2022-07-25T11:31:17.977Z,98098.66
2022-07-25T11:33:50.841Z,98096.09
2022-07-25T11:36:20.451Z,98092.88
2022-07-25T11:38:50.967Z,98091.84
2022-07-25T11:41:30.132Z,98091.66
2022-07-25T11:43:59.349Z,98078.44
2022-07-25T11:46:28.532Z,98084.31
2022-07-25T11:49:08.916Z,98077.56
2022-07-25T11:51:40.202Z,98072.88
2022-07-25T11:54:11.751Z,98066.72
2022-07-25T11:56:43.244Z,98071.44
2022-07-25T11:59:12.911Z,98062.47
2022-07-25T12:01:44.028Z,98058.03
2022-07-25T12:04:18.308Z,98056.50
2022-07-25T12:06:49.750Z,98047.91
2022-07-25T12:09:21.294Z,98045.03
2022-07-25T12:11:51.009Z,98044.03
2022-07-25T12:14:20.139Z,98038.53
2022-07-25T12:16:49.274Z,98038.31
2022-07-25T12:19:23.777Z,98040.50
2022-07-25T12:21:53.087Z,98045.88
2022-07-25T12:24:22.264Z,98043.44
2022-07-25T12:26:53.558Z,98036.59
2022-07-25T12:29:22.669Z,98033.84
2022-07-25T12:31:51.954Z,98029.69
2022-07-25T12:34:22.619Z,98022.75
2022-07-25T12:36:53.069Z,98016.81
2022-07-25T12:39:22.806Z,98009.81
2022-07-25T12:41:52.252Z,98014.09
2022-07-25T12:44:21.509Z,98007.50
2022-07-25T12:46:51.869Z,97998.81
2022-07-25T12:49:22.528Z,97993.66
2022-07-25T12:51:56.101Z,97987.09
2022-07-25T12:54:27.165Z,97984.13
2022-07-25T12:56:56.333Z,97985.38
2022-07-25T12:59:25.631Z,97975.00
2022-07-25T13:01:54.999Z,97971.72
2022-07-25T13:04:26.886Z,97967.91
2022-07-25T13:06:56.935Z,97962.53
2022-07-25T13:09:26.315Z,97958.22
2022-07-25T13:11:56.544Z,97960.31
2022-07-25T13:14:26.620Z,97954.00
2022-07-25T13:16:56.113Z,97955.06
2022-07-25T13:19:26.745Z,97953.25
2022-07-25T13:21:56.049Z,97934.69
2022-07-25T13:24:25.336Z,97927.66
2022-07-25T13:26:54.532Z,97931.06
2022-07-25T13:29:23.710Z,97923.63
2022-07-25T13:31:53.333Z,97920.19
2022-07-25T13:34:22.552Z,97915.59
2022-07-25T13:36:53.216Z,97924.72
2022-07-25T13:39:22.651Z,97915.88
2022-07-25T13:41:51.861Z,97910.53
2022-07-25T13:44:21.093Z,97904.47
2022-07-25T13:46:50.678Z,97905.06
2022-07-25T13:49:20.913Z,97897.78
2022-07-25T13:51:50.193Z,97905.19
2022-07-25T13:54:21.253Z,97894.78
2022-07-25T13:56:50.529Z,97882.28
2022-07-25T13:59:21.715Z,97883.09
2022-07-25T14:01:51.900Z,97882.66
2022-07-25T14:04:21.088Z,97874.81
2022-07-25T14:06:52.281Z,97877.94
2022-07-25T14:09:24.051Z,97863.06
2022-07-25T14:11:53.184Z,97856.84
2022-07-25T14:14:22.323Z,97853.06
2022-07-25T14:16:51.925Z,97849.06
2022-07-25T14:19:21.166Z,97860.91
2022-07-25T14:21:50.282Z,97845.59
2022-07-25T14:24:19.457Z,97833.53
2022-07-25T14:26:50.326Z,97836.16
2022-07-25T14:29:19.504Z,97830.31
2022-07-25T14:31:49.740Z,97830.22
2022-07-25T14:34:19.177Z,97829.22
2022-07-25T14:36:48.607Z,97819.84
2022-07-25T14:39:18.197Z,97818.28
2022-07-25T14:41:47.354Z,97809.66
2022-07-25T14:44:18.126Z,97801.44
2022-07-25T14:46:49.140Z,97809.63
2022-07-25T14:49:18.595Z,97817.72
2022-07-25T14:51:47.870Z,97821.50
2022-07-25T14:54:17.228Z,97812.34
2022-07-25T14:56:46.664Z,97803.56
2022-07-25T14:59:17.801Z,97802.28
2022-07-25T15:01:47.441Z,97801.28
2022-07-25T15:04:19.847Z,97799.25
2022-07-25T15:06:49.553Z,97790.81
2022-07-25T15:09:18.938Z,97788.19
2022-07-25T15:11:48.186Z,97792.25
2022-07-25T15:14:19.319Z,97785.06
2022-07-25T15:16:48.587Z,97768.28
2022-07-25T15:19:18.539Z,97763.34
2022-07-25T15:21:47.789Z,97771.25
2022-07-25T15:24:17.045Z,97769.09
2022-07-25T15:26:46.362Z,97764.25
2022-07-25T15:29:20.516Z,97768.47
2022-07-25T15:31:51.320Z,97750.38
2022-07-25T15:34:20.607Z,97747.50
2022-07-25T15:36:49.799Z,97746.47
2022-07-25T15:39:19.605Z,97739.53
2022-07-25T15:41:48.847Z,97734.41
2022-07-25T15:44:18.117Z,97738.75
2022-07-25T15:46:47.571Z,97726.56
2022-07-25T15:49:18.385Z,97729.47
2022-07-25T15:51:47.622Z,97734.63
2022-07-25T15:54:16.883Z,97732.03
2022-07-25T15:56:46.050Z,97741.16
2022-07-25T15:59:15.281Z,97733.59
2022-07-25T16:01:44.968Z,97732.50
2022-07-25T16:04:14.218Z,97725.00
2022-07-25T16:06:45.018Z,97720.34
2022-07-25T16:09:16.173Z,97715.56
2022-07-25T16:11:45.610Z,97710.31
2022-07-25T16:14:14.997Z,97708.09
2022-07-25T16:16:45.308Z,97717.47
2022-07-25T16:19:14.805Z,97719.66
2022-07-25T16:21:45.501Z,97705.09
2022-07-25T16:24:14.881Z,97712.97
2022-07-25T16:26:46.023Z,97718.06
2022-07-25T16:29:16.600Z,97714.06
2022-07-25T16:31:46.333Z,97720.03
2022-07-25T16:34:15.610Z,97703.06
2022-07-25T16:36:47.133Z,97707.88
2022-07-25T16:39:16.862Z,97702.66
2022-07-25T16:41:47.069Z,97699.22
2022-07-25T16:44:16.725Z,97699.47
2022-07-25T16:46:46.610Z,97704.03
2022-07-25T16:49:16.230Z,97694.63
2022-07-25T16:51:47.648Z,97701.91
2022-07-25T16:54:18.127Z,97698.59
2022-07-25T16:56:52.841Z,97694.44
2022-07-25T16:59:22.871Z,97698.22
2022-07-25T17:01:52.164Z,97682.94
2022-07-25T17:04:22.842Z,97690.94
2022-07-25T17:06:53.832Z,97688.63
2022-07-25T17:09:25.279Z,97685.13
2022-07-25T17:11:54.705Z,97683.97
2022-07-25T17:14:29.538Z,97681.28
2022-07-25T17:16:59.901Z,97669.53
2022-07-25T17:19:29.328Z,97679.81
2022-07-25T17:21:59.973Z,97676.38
2022-07-25T17:24:29.262Z,97671.78
2022-07-25T17:26:59.718Z,97674.75
2022-07-25T17:29:28.924Z,97682.13
2022-07-25T17:31:58.608Z,97667.84
2022-07-25T17:34:28.393Z,97668.63
2022-07-25T17:37:02.713Z,97659.47
2022-07-25T17:39:35.555Z,97658.38
2022-07-25T17:42:07.372Z,97645.16
2022-07-25T17:44:36.758Z,97648.38
2022-07-25T17:47:07.995Z,97647.56
2022-07-25T17:49:37.355Z,97646.47
2022-07-25T17:52:07.042Z,97636.84
2022-07-25T17:54:38.800Z,97649.34
2022-07-25T17:57:08.411Z,97643.09
2022-07-25T17:59:37.674Z,97637.06
2022-07-25T18:02:06.885Z,97642.69
2022-07-25T18:04:37.471Z,97637.56
2022-07-25T18:07:06.926Z,97641.75
2022-07-25T18:09:36.207Z,97641.97
2022-07-25T18:12:07.841Z,97639.75
2022-07-25T18:14:37.157Z,97633.38
2022-07-25T18:17:07.387Z,97631.72
2022-07-25T18:19:37.000Z,97637.03
2022-07-25T18:22:06.539Z,97620.31
2022-07-25T18:24:35.970Z,97620.09
2022-07-25T18:27:07.427Z,97623.03
2022-07-25T18:29:38.557Z,97621.09
2022-07-25T18:32:16.053Z,97615.31
2022-07-25T18:34:45.392Z,97615.09
2022-07-25T18:37:15.754Z,97623.78
2022-07-25T18:39:45.211Z,97626.22
2022-07-25T18:42:16.933Z,97619.75
2022-07-25T18:44:46.113Z,97619.31
2022-07-25T18:47:32.359Z,97628.47
2022-07-25T18:50:18.520Z,97628.97
2022-07-25T18:52:56.549Z,97632.63
2022-07-25T18:55:26.560Z,97641.69
2022-07-25T18:58:01.720Z,97640.56
2022-07-25T19:00:32.347Z,97650.41
2022-07-25T19:03:04.049Z,97652.81
2022-07-25T19:05:35.000Z,97639.41
2022-07-25T19:08:05.010Z,97642.72
2022-07-25T19:10:35.860Z,97664.13
2022-07-25T19:13:07.813Z,97653.09
2022-07-25T19:15:38.265Z,97657.72
2022-07-25T19:18:09.646Z,97660.47
2022-07-25T19:20:40.872Z,97665.38
2022-07-25T19:23:13.342Z,97661.28
2022-07-25T19:25:42.771Z,97663.72
2022-07-25T19:28:13.914Z,97666.34
2022-07-25T19:30:44.479Z,97671.69
2022-07-25T19:33:14.383Z,97667.44
2022-07-25T19:35:45.939Z,97664.72
2022-07-25T19:38:15.436Z,97665.34
2022-07-25T19:40:44.784Z,97664.16
2022-07-25T19:43:17.246Z,97659.97
2022-07-25T19:45:46.689Z,97665.19
2022-07-25T19:48:15.883Z,97665.19
2022-07-25T19:50:46.405Z,97667.59
2022-07-25T19:53:16.668Z,97668.63
2022-07-25T19:55:46.182Z,97665.59
2022-07-25T19:58:17.271Z,97665.16
2022-07-25T20:00:47.912Z,97661.88
2022-07-25T20:03:17.172Z,97664.50
2022-07-25T20:05:55.215Z,97656.41
2022-07-25T20:08:24.536Z,97664.31
2022-07-25T20:10:53.946Z,97664.94
2022-07-25T20:13:24.912Z,97666.72
2022-07-25T20:15:54.443Z,97676.00
2022-07-25T20:18:23.834Z,97676.31
2022-07-25T20:20:53.315Z,97676.88
2022-07-25T20:23:24.009Z,97662.28
2022-07-25T20:25:54.163Z,97657.41
2022-07-25T20:28:24.938Z,97653.31
2022-07-25T20:30:55.954Z,97653.59
2022-07-25T20:33:27.246Z,97651.47
2022-07-25T20:35:57.633Z,97661.88
2022-07-25T20:38:28.519Z,97663.47
2022-07-25T20:40:57.723Z,97662.38
2022-07-25T20:43:29.941Z,97661.88
2022-07-25T20:45:59.256Z,97665.03
2022-07-25T20:48:28.756Z,97658.56
2022-07-25T20:50:58.127Z,97654.94
2022-07-25T20:53:27.377Z,97648.41
2022-07-25T20:55:56.562Z,97658.31
2022-07-25T20:58:26.001Z,97656.78
2022-07-25T21:00:56.698Z,97652.91
2022-07-25T21:03:26.002Z,97654.72
2022-07-25T21:05:55.207Z,97656.56
2022-07-25T21:08:24.343Z,97669.22
2022-07-25T21:10:53.637Z,97668.28
2022-07-25T21:13:22.825Z,97680.31
2022-07-25T21:15:52.211Z,97683.94
2022-07-25T21:18:22.794Z,97685.00
2022-07-25T21:20:52.057Z,97690.22
2022-07-25T21:23:22.018Z,97685.00
2022-07-25T21:25:51.096Z,97681.84
2022-07-25T21:28:20.335Z,97685.50
2022-07-25T21:30:49.669Z,97678.47
2022-07-25T21:33:18.869Z,97671.97
2022-07-25T21:35:53.706Z,97657.34
2022-07-25T21:38:26.739Z,97659.44
2022-07-25T21:40:58.768Z,97659.97
2022-07-25T21:43:27.976Z,97666.22
2022-07-25T21:45:57.244Z,97671.44
2022-07-25T21:48:40.846Z,97679.78
2022-07-25T21:51:14.198Z,97677.19
2022-07-25T21:53:50.405Z,97684.22
2022-07-25T21:56:20.487Z,97692.06
2022-07-25T21:58:50.062Z,97693.09
2022-07-25T22:01:21.624Z,97686.06
2022-07-25T22:03:52.724Z,97686.31
2022-07-25T22:06:23.398Z,97675.38
2022-07-25T22:08:52.637Z,97681.88
2022-07-25T22:11:42.302Z,97693.38
2022-07-25T22:14:11.092Z,97683.94
2022-07-25T22:16:40.375Z,97681.28
2022-07-25T22:19:10.314Z,97686.50
2022-07-25T22:21:42.198Z,97687.00
2022-07-25T22:24:12.254Z,97676.84
2022-07-25T22:26:41.540Z,97673.47
2022-07-25T22:29:11.330Z,97667.75
2022-07-25T22:31:41.048Z,97668.28
2022-07-25T22:34:10.333Z,97659.44
2022-07-25T22:36:41.023Z,97667.53
2022-07-25T22:39:11.254Z,97669.34
2022-07-25T22:41:40.977Z,97672.47
2022-07-25T22:44:10.497Z,97669.34
2022-07-25T22:46:39.984Z,97665.16
2022-07-25T22:49:10.046Z,97654.16
2022-07-25T22:51:40.935Z,97659.63
2022-07-25T22:54:10.407Z,97662.47
2022-07-25T22:56:39.623Z,97650.47
2022-07-25T22:59:09.076Z,97649.94
2022-07-25T23:01:38.699Z,97646.31
2022-07-25T23:04:07.942Z,97651.53
2022-07-25T23:06:37.278Z,97646.84
2022-07-25T23:09:08.213Z,97649.47
2022-07-25T23:11:38.000Z,97645.06
2022-07-25T23:14:07.301Z,97642.19
2022-07-25T23:16:36.559Z,97656.31
2022-07-25T23:19:06.089Z,97644.50
2022-07-25T23:21:35.823Z,97656.25
2022-07-25T23:24:06.045Z,97658.06
2022-07-25T23:26:36.602Z,97653.63
2022-07-25T23:29:06.134Z,97658.00
2022-07-25T23:31:35.486Z,97656.44
2022-07-25T23:34:06.647Z,97651.94
2022-07-25T23:36:36.221Z,97658.25
2022-07-25T23:39:05.992Z,97648.31
2022-07-25T23:41:36.884Z,97634.75
2022-07-25T23:44:07.712Z,97640.53
2022-07-25T23:46:38.053Z,97634.31
2022-07-25T23:49:10.348Z,97625.44
2022-07-25T23:51:39.990Z,97620.75
2022-07-25T23:54:09.230Z,97616.88
2022-07-25T23:56:40.015Z,97619.19
2022-07-25T23:59:10.099Z,97625.44
